This is the latest recevied weather packets stored in our database for station/object OK1PNK-5. If no packets are shown the sender has not sent any weather packets the latest 10 day(s).
| Time | Temp. | Humidity | Pressure | Rain* | Wind** | Luminosity | Snow |
|---|---|---|---|---|---|---|---|
| 1777716143 | 21.11° C | 42% | 981.7 hPa | 0 mm | - | - | - |
| 1777715543 | 21.11° C | 42% | 981.7 hPa | 0 mm | - | - | - |
| 1777714943 | 20° C | 45% | 982 hPa | 0 mm | - | - | - |
| 1777714343 | 20° C | 45% | 982 hPa | 0 mm | - | - | - |
| 1777713743 | 19.44° C | 47% | 982.1 hPa | 0 mm | - | - | - |
| 1777713143 | 19.44° C | 47% | 982.1 hPa | 0 mm | - | - | - |
| 1777712543 | 18.33° C | 50% | 982.2 hPa | 0 mm | - | - | - |
| 1777711943 | 16.67° C | 54% | 982.5 hPa | 0 mm | - | - | - |
| 1777711343 | 16.11° C | 55% | 982.5 hPa | 0 mm | - | - | - |
| 1777710743 | 10.56° C | 67% | 983 hPa | 0 mm | - | - | - |
| 1777710143 | 10.56° C | 67% | 983 hPa | 0 mm | - | - | - |
| 1777709543 | 10.56° C | 67% | 983 hPa | 0 mm | - | - | - |
| 1777708943 | 10.56° C | 67% | 983 hPa | 0 mm | - | - | - |
| 1777708343 | 10.56° C | 67% | 983 hPa | 0 mm | - | - | - |
| 1777707743 | 10.56° C | 67% | 983 hPa | 0 mm | - | - | - |
| 1777707143 | 10.56° C | 67% | 983 hPa | 0 mm | - | - | - |
| 1777706543 | 10° C | 68% | 983.1 hPa | 0 mm | - | - | - |
| 1777705943 | 10° C | 68% | 983.2 hPa | 0 mm | - | - | - |
| 1777705343 | 10° C | 68% | 983.2 hPa | 0 mm | - | - | - |
| 1777704743 | 8.89° C | 70% | 983.3 hPa | 0 mm | - | - | - |
| 1777704143 | 8.33° C | 70% | 983.3 hPa | 0 mm | - | - | - |
| 1777703543 | 8.33° C | 70% | 983.3 hPa | 0 mm | - | - | - |
| 1777702943 | 7.78° C | 71% | 983.5 hPa | 0 mm | - | - | - |
| 1777702343 | 7.22° C | 71% | 983.5 hPa | 0 mm | - | - | - |
| 1777701743 | 7.22° C | 71% | 983.5 hPa | 0 mm | - | - | - |
* Rain latest hour (hover to see other rain measurements)
** Current wind speed in m/s (hover to see current wind gust speed)